sensor_id;sensor_type;location;lat;lon;timestamp;P1;durP1;ratioP1;P2;durP2;ratioP2
78508;SDS011;67802;50.846;7.958;2023-08-21T13:29:17;5.65;;;3.08;;
78508;SDS011;67802;50.846;7.958;2023-08-21T13:31:43;5.60;;;2.80;;
78508;SDS011;67802;50.846;7.958;2023-08-21T13:34:08;4.97;;;2.60;;
78508;SDS011;67802;50.846;7.958;2023-08-21T13:36:34;5.70;;;3.00;;
78508;SDS011;67802;50.846;7.958;2023-08-21T13:38:59;5.13;;;2.60;;
78508;SDS011;67802;50.846;7.958;2023-08-21T13:41:24;6.93;;;2.63;;
78508;SDS011;67802;50.846;7.958;2023-08-21T13:43:50;5.22;;;3.10;;
78508;SDS011;67802;50.846;7.958;2023-08-21T13:46:15;5.43;;;2.80;;
78508;SDS011;67802;50.846;7.958;2023-08-21T13:48:40;5.38;;;2.83;;
78508;SDS011;67802;50.846;7.958;2023-08-21T13:51:06;5.43;;;2.90;;
78508;SDS011;67802;50.846;7.958;2023-08-21T13:53:31;5.13;;;2.50;;
78508;SDS011;67802;50.846;7.958;2023-08-21T13:55:56;5.27;;;2.43;;
78508;SDS011;67802;50.846;7.958;2023-08-21T13:58:22;5.67;;;2.90;;
78508;SDS011;67802;50.846;7.958;2023-08-21T14:00:47;5.35;;;2.50;;
78508;SDS011;67802;50.846;7.958;2023-08-21T14:03:12;5.32;;;2.60;;
78508;SDS011;67802;50.846;7.958;2023-08-21T14:05:37;7.68;;;2.90;;
78508;SDS011;67802;50.846;7.958;2023-08-21T14:08:03;6.53;;;2.63;;
78508;SDS011;67802;50.846;7.958;2023-08-21T14:10:29;5.57;;;2.92;;
78508;SDS011;67802;50.846;7.958;2023-08-21T14:12:55;5.68;;;2.70;;
78508;SDS011;67802;50.846;7.958;2023-08-21T14:15:21;9.25;;;2.70;;
78508;SDS011;67802;50.846;7.958;2023-08-21T14:17:47;5.32;;;2.92;;
78508;SDS011;67802;50.846;7.958;2023-08-21T14:20:14;6.18;;;2.65;;
78508;SDS011;67802;50.846;7.958;2023-08-21T14:22:39;6.50;;;3.28;;
78508;SDS011;67802;50.846;7.958;2023-08-21T14:25:05;6.82;;;2.63;;
78508;SDS011;67802;50.846;7.958;2023-08-21T14:27:31;5.95;;;2.70;;
78508;SDS011;67802;50.846;7.958;2023-08-21T14:29:56;7.22;;;3.00;;
78508;SDS011;67802;50.846;7.958;2023-08-21T14:32:22;5.05;;;2.90;;
78508;SDS011;67802;50.846;7.958;2023-08-21T14:34:47;4.75;;;2.67;;
78508;SDS011;67802;50.846;7.958;2023-08-21T14:37:13;5.15;;;2.63;;
78508;SDS011;67802;50.846;7.958;2023-08-21T14:39:40;5.88;;;2.58;;
78508;SDS011;67802;50.846;7.958;2023-08-21T14:42:06;5.28;;;2.60;;
78508;SDS011;67802;50.846;7.958;2023-08-21T14:44:32;4.68;;;2.55;;
78508;SDS011;67802;50.846;7.958;2023-08-21T14:46:57;4.80;;;2.50;;
78508;SDS011;67802;50.846;7.958;2023-08-21T14:49:23;4.57;;;2.33;;
78508;SDS011;67802;50.846;7.958;2023-08-21T14:51:48;4.80;;;2.88;;
78508;SDS011;67802;50.846;7.958;2023-08-21T14:54:14;5.95;;;2.65;;
78508;SDS011;67802;50.846;7.958;2023-08-21T14:56:40;4.75;;;2.70;;
78508;SDS011;67802;50.846;7.958;2023-08-21T14:59:05;5.35;;;2.92;;
78508;SDS011;67802;50.846;7.958;2023-08-21T15:01:35;4.45;;;2.30;;
78508;SDS011;67802;50.846;7.958;2023-08-21T15:04:01;5.78;;;3.03;;
78508;SDS011;67802;50.846;7.958;2023-08-21T15:06:26;5.05;;;2.33;;
78508;SDS011;67802;50.846;7.958;2023-08-21T15:08:52;5.55;;;2.80;;
78508;SDS011;67802;50.846;7.958;2023-08-21T15:11:17;5.75;;;3.00;;
78508;SDS011;67802;50.846;7.958;2023-08-21T15:13:42;4.95;;;2.83;;
78508;SDS011;67802;50.846;7.958;2023-08-21T15:16:08;5.32;;;2.75;;
78508;SDS011;67802;50.846;7.958;2023-08-21T15:18:33;6.55;;;3.33;;
78508;SDS011;67802;50.846;7.958;2023-08-21T15:20:58;9.38;;;3.70;;
78508;SDS011;67802;50.846;7.958;2023-08-21T15:23:24;5.93;;;3.40;;
78508;SDS011;67802;50.846;7.958;2023-08-21T15:25:50;6.15;;;3.53;;
78508;SDS011;67802;50.846;7.958;2023-08-21T15:28:16;5.22;;;3.28;;
78508;SDS011;67802;50.846;7.958;2023-08-21T15:30:41;6.28;;;3.47;;
78508;SDS011;67802;50.846;7.958;2023-08-21T15:33:07;8.93;;;3.80;;
78508;SDS011;67802;50.846;7.958;2023-08-21T15:35:32;6.40;;;3.50;;
78508;SDS011;67802;50.846;7.958;2023-08-21T15:37:57;6.80;;;3.58;;
78508;SDS011;67802;50.846;7.958;2023-08-21T15:40:22;9.75;;;3.67;;
78508;SDS011;67802;50.846;7.958;2023-08-21T15:42:48;6.35;;;3.60;;
78508;SDS011;67802;50.846;7.958;2023-08-21T15:45:13;6.75;;;3.50;;
78508;SDS011;67802;50.846;7.958;2023-08-21T15:47:39;9.63;;;3.55;;
78508;SDS011;67802;50.846;7.958;2023-08-21T15:50:04;7.60;;;3.67;;
78508;SDS011;67802;50.846;7.958;2023-08-21T15:52:30;7.70;;;3.55;;
78508;SDS011;67802;50.846;7.958;2023-08-21T15:54:55;5.75;;;3.15;;
78508;SDS011;67802;50.846;7.958;2023-08-21T15:57:20;6.90;;;3.83;;
78508;SDS011;67802;50.846;7.958;2023-08-21T15:59:46;6.32;;;3.75;;
78508;SDS011;67802;50.846;7.958;2023-08-21T16:02:12;10.07;;;3.50;;
78508;SDS011;67802;50.846;7.958;2023-08-21T16:04:37;8.43;;;3.53;;
78508;SDS011;67802;50.846;7.958;2023-08-21T16:07:03;6.20;;;3.33;;
78508;SDS011;67802;50.846;7.958;2023-08-21T16:09:28;6.18;;;3.90;;
78508;SDS011;67802;50.846;7.958;2023-08-21T16:11:54;7.60;;;3.50;;
78508;SDS011;67802;50.846;7.958;2023-08-21T16:14:19;7.13;;;3.35;;
78508;SDS011;67802;50.846;7.958;2023-08-21T16:16:44;6.90;;;3.42;;
78508;SDS011;67802;50.846;7.958;2023-08-21T16:19:10;7.47;;;3.50;;
78508;SDS011;67802;50.846;7.958;2023-08-21T16:21:36;6.82;;;3.28;;
78508;SDS011;67802;50.846;7.958;2023-08-21T16:24:01;7.90;;;3.60;;
78508;SDS011;67802;50.846;7.958;2023-08-21T16:26:27;6.65;;;3.83;;
78508;SDS011;67802;50.846;7.958;2023-08-21T16:28:53;7.45;;;3.25;;
78508;SDS011;67802;50.846;7.958;2023-08-21T16:31:18;6.50;;;3.55;;
78508;SDS011;67802;50.846;7.958;2023-08-21T16:33:43;6.53;;;3.53;;
78508;SDS011;67802;50.846;7.958;2023-08-21T16:36:09;6.22;;;3.67;;
78508;SDS011;67802;50.846;7.958;2023-08-21T16:38:34;9.13;;;3.53;;
78508;SDS011;67802;50.846;7.958;2023-08-21T16:41:00;6.88;;;3.58;;
78508;SDS011;67802;50.846;7.958;2023-08-21T16:43:26;7.53;;;3.75;;
78508;SDS011;67802;50.846;7.958;2023-08-21T16:45:51;7.25;;;3.45;;
78508;SDS011;67802;50.846;7.958;2023-08-21T16:48:17;8.43;;;3.70;;
78508;SDS011;67802;50.846;7.958;2023-08-21T16:50:43;7.97;;;3.70;;
78508;SDS011;67802;50.846;7.958;2023-08-21T16:53:08;11.60;;;3.60;;
78508;SDS011;67802;50.846;7.958;2023-08-21T16:55:33;6.53;;;3.25;;
78508;SDS011;67802;50.846;7.958;2023-08-21T16:57:59;6.25;;;3.80;;
78508;SDS011;67802;50.846;7.958;2023-08-21T17:00:26;5.28;;;3.28;;
78508;SDS011;67802;50.846;7.958;2023-08-21T17:02:51;8.25;;;4.00;;
78508;SDS011;67802;50.846;7.958;2023-08-21T17:05:17;9.00;;;3.72;;
78508;SDS011;67802;50.846;7.958;2023-08-21T17:07:43;7.55;;;3.88;;
78508;SDS011;67802;50.846;7.958;2023-08-21T17:10:09;7.47;;;3.28;;
78508;SDS011;67802;50.846;7.958;2023-08-21T17:12:35;7.15;;;3.60;;
78508;SDS011;67802;50.846;7.958;2023-08-21T17:15:01;6.55;;;3.30;;
78508;SDS011;67802;50.846;7.958;2023-08-21T17:17:28;8.02;;;3.53;;
78508;SDS011;67802;50.846;7.958;2023-08-21T17:19:54;10.63;;;3.85;;
78508;SDS011;67802;50.846;7.958;2023-08-21T17:22:19;8.65;;;3.60;;
78508;SDS011;67802;50.846;7.958;2023-08-21T17:24:44;7.45;;;3.88;;
78508;SDS011;67802;50.846;7.958;2023-08-21T17:27:10;8.48;;;3.28;;
78508;SDS011;67802;50.846;7.958;2023-08-21T17:29:35;6.60;;;3.90;;
78508;SDS011;67802;50.846;7.958;2023-08-21T17:32:10;6.88;;;3.47;;
78508;SDS011;67802;50.846;7.958;2023-08-21T17:34:39;9.05;;;3.70;;
78508;SDS011;67802;50.846;7.958;2023-08-21T17:37:05;7.20;;;3.42;;
78508;SDS011;67802;50.846;7.958;2023-08-21T17:39:31;7.70;;;3.50;;
78508;SDS011;67802;50.846;7.958;2023-08-21T17:41:56;7.43;;;3.80;;
78508;SDS011;67802;50.846;7.958;2023-08-21T17:44:21;6.57;;;3.38;;
78508;SDS011;67802;50.846;7.958;2023-08-21T17:46:47;6.40;;;3.35;;
78508;SDS011;67802;50.846;7.958;2023-08-21T17:49:12;7.28;;;3.67;;
78508;SDS011;67802;50.846;7.958;2023-08-21T17:51:38;8.95;;;3.60;;
78508;SDS011;67802;50.846;7.958;2023-08-21T17:54:03;6.05;;;3.33;;
78508;SDS011;67802;50.846;7.958;2023-08-21T17:56:28;8.18;;;3.75;;
78508;SDS011;67802;50.846;7.958;2023-08-21T17:58:55;7.65;;;3.85;;
78508;SDS011;67802;50.846;7.958;2023-08-21T18:01:20;8.57;;;3.72;;
78508;SDS011;67802;50.846;7.958;2023-08-21T18:03:46;7.68;;;3.45;;
78508;SDS011;67802;50.846;7.958;2023-08-21T18:06:11;8.15;;;3.85;;
78508;SDS011;67802;50.846;7.958;2023-08-21T18:08:36;8.40;;;3.50;;
78508;SDS011;67802;50.846;7.958;2023-08-21T18:11:02;7.38;;;3.60;;
78508;SDS011;67802;50.846;7.958;2023-08-21T18:13:28;6.28;;;3.40;;
78508;SDS011;67802;50.846;7.958;2023-08-21T18:15:54;8.10;;;3.70;;
78508;SDS011;67802;50.846;7.958;2023-08-21T18:18:19;9.77;;;3.78;;
78508;SDS011;67802;50.846;7.958;2023-08-21T18:20:52;11.00;;;3.88;;
78508;SDS011;67802;50.846;7.958;2023-08-21T18:23:20;10.05;;;3.47;;
78508;SDS011;67802;50.846;7.958;2023-08-21T18:25:50;7.10;;;3.25;;
78508;SDS011;67802;50.846;7.958;2023-08-21T18:28:16;6.40;;;3.70;;
78508;SDS011;67802;50.846;7.958;2023-08-21T18:30:48;5.95;;;3.63;;
78508;SDS011;67802;50.846;7.958;2023-08-21T18:33:15;7.20;;;3.63;;
78508;SDS011;67802;50.846;7.958;2023-08-21T18:35:41;8.75;;;3.55;;
78508;SDS011;67802;50.846;7.958;2023-08-21T18:38:07;5.93;;;3.17;;
78508;SDS011;67802;50.846;7.958;2023-08-21T18:40:33;8.07;;;3.20;;
78508;SDS011;67802;50.846;7.958;2023-08-21T18:42:59;9.15;;;3.70;;
78508;SDS011;67802;50.846;7.958;2023-08-21T18:45:25;8.25;;;3.85;;
78508;SDS011;67802;50.846;7.958;2023-08-21T18:47:51;7.95;;;3.70;;
78508;SDS011;67802;50.846;7.958;2023-08-21T18:50:17;8.57;;;3.60;;
78508;SDS011;67802;50.846;7.958;2023-08-21T18:52:45;7.70;;;3.40;;
78508;SDS011;67802;50.846;7.958;2023-08-21T18:55:13;9.73;;;3.60;;
78508;SDS011;67802;50.846;7.958;2023-08-21T18:57:39;7.40;;;3.58;;
78508;SDS011;67802;50.846;7.958;2023-08-21T19:00:05;8.07;;;3.50;;
78508;SDS011;67802;50.846;7.958;2023-08-21T19:02:37;7.68;;;3.60;;
78508;SDS011;67802;50.846;7.958;2023-08-21T19:05:05;7.82;;;3.75;;
78508;SDS011;67802;50.846;7.958;2023-08-21T19:07:31;9.35;;;3.80;;
78508;SDS011;67802;50.846;7.958;2023-08-21T19:09:56;7.32;;;3.70;;
78508;SDS011;67802;50.846;7.958;2023-08-21T19:12:21;10.00;;;3.63;;
78508;SDS011;67802;50.846;7.958;2023-08-21T19:14:47;11.90;;;3.92;;
78508;SDS011;67802;50.846;7.958;2023-08-21T19:17:12;10.65;;;3.97;;
78508;SDS011;67802;50.846;7.958;2023-08-21T19:19:37;8.63;;;3.83;;
78508;SDS011;67802;50.846;7.958;2023-08-21T19:22:02;7.85;;;3.80;;
78508;SDS011;67802;50.846;7.958;2023-08-21T19:24:28;10.20;;;3.70;;
78508;SDS011;67802;50.846;7.958;2023-08-21T19:26:55;9.80;;;4.18;;
78508;SDS011;67802;50.846;7.958;2023-08-21T19:29:21;8.32;;;4.10;;
78508;SDS011;67802;50.846;7.958;2023-08-21T19:31:46;8.82;;;4.32;;
78508;SDS011;67802;50.846;7.958;2023-08-21T19:34:12;9.10;;;4.18;;
78508;SDS011;67802;50.846;7.958;2023-08-21T19:36:37;7.63;;;3.45;;
78508;SDS011;67802;50.846;7.958;2023-08-21T19:39:03;8.65;;;4.03;;
78508;SDS011;67802;50.846;7.958;2023-08-21T19:41:29;8.13;;;3.28;;
78508;SDS011;67802;50.846;7.958;2023-08-21T19:43:54;8.82;;;3.70;;
78508;SDS011;67802;50.846;7.958;2023-08-21T19:46:19;10.43;;;3.58;;
78508;SDS011;67802;50.846;7.958;2023-08-21T19:48:44;8.45;;;3.35;;
78508;SDS011;67802;50.846;7.958;2023-08-21T19:51:10;6.35;;;3.03;;
78508;SDS011;67802;50.846;7.958;2023-08-21T19:53:35;6.13;;;3.10;;
78508;SDS011;67802;50.846;7.958;2023-08-21T19:56:01;6.03;;;3.33;;
78508;SDS011;67802;50.846;7.958;2023-08-21T19:58:28;7.28;;;3.53;;
78508;SDS011;67802;50.846;7.958;2023-08-21T20:00:53;9.82;;;4.15;;
78508;SDS011;67802;50.846;7.958;2023-08-21T20:03:19;9.68;;;4.45;;
78508;SDS011;67802;50.846;7.958;2023-08-21T20:05:45;10.63;;;4.10;;
78508;SDS011;67802;50.846;7.958;2023-08-21T20:08:11;8.55;;;3.67;;
78508;SDS011;67802;50.846;7.958;2023-08-21T20:10:37;9.38;;;4.15;;
78508;SDS011;67802;50.846;7.958;2023-08-21T20:13:03;7.90;;;3.92;;
78508;SDS011;67802;50.846;7.958;2023-08-21T20:15:29;8.70;;;4.28;;
78508;SDS011;67802;50.846;7.958;2023-08-21T20:17:54;9.07;;;3.80;;
78508;SDS011;67802;50.846;7.958;2023-08-21T20:20:19;8.60;;;3.80;;
78508;SDS011;67802;50.846;7.958;2023-08-21T20:22:45;8.27;;;3.75;;
78508;SDS011;67802;50.846;7.958;2023-08-21T20:25:10;8.80;;;3.92;;
78508;SDS011;67802;50.846;7.958;2023-08-21T20:27:36;8.63;;;3.90;;
78508;SDS011;67802;50.846;7.958;2023-08-21T20:30:02;7.13;;;3.78;;
78508;SDS011;67802;50.846;7.958;2023-08-21T20:32:31;9.35;;;3.65;;
78508;SDS011;67802;50.846;7.958;2023-08-21T20:34:56;8.35;;;3.97;;
78508;SDS011;67802;50.846;7.958;2023-08-21T20:37:24;8.77;;;4.00;;
78508;SDS011;67802;50.846;7.958;2023-08-21T20:39:50;11.43;;;3.85;;
78508;SDS011;67802;50.846;7.958;2023-08-21T20:42:15;10.25;;;4.10;;
78508;SDS011;67802;50.846;7.958;2023-08-21T20:44:45;11.40;;;4.43;;
78508;SDS011;67802;50.846;7.958;2023-08-21T20:47:11;8.68;;;4.03;;
78508;SDS011;67802;50.846;7.958;2023-08-21T20:49:36;8.10;;;3.95;;
78508;SDS011;67802;50.846;7.958;2023-08-21T20:52:03;7.97;;;3.85;;
78508;SDS011;67802;50.846;7.958;2023-08-21T20:54:29;7.95;;;4.00;;
78508;SDS011;67802;50.846;7.958;2023-08-21T20:56:54;9.35;;;4.22;;
78508;SDS011;67802;50.846;7.958;2023-08-21T20:59:20;10.05;;;4.07;;
78508;SDS011;67802;50.846;7.958;2023-08-21T21:01:45;8.00;;;3.90;;
78508;SDS011;67802;50.846;7.958;2023-08-21T21:04:11;8.80;;;4.20;;
78508;SDS011;67802;50.846;7.958;2023-08-21T21:06:36;9.35;;;4.20;;
78508;SDS011;67802;50.846;7.958;2023-08-21T21:09:01;9.27;;;4.50;;
78508;SDS011;67802;50.846;7.958;2023-08-21T21:11:29;8.35;;;4.15;;
78508;SDS011;67802;50.846;7.958;2023-08-21T21:13:55;8.20;;;4.20;;
78508;SDS011;67802;50.846;7.958;2023-08-21T21:16:20;8.13;;;4.38;;
78508;SDS011;67802;50.846;7.958;2023-08-21T21:18:45;11.65;;;4.43;;
78508;SDS011;67802;50.846;7.958;2023-08-21T21:21:11;8.98;;;4.68;;
78508;SDS011;67802;50.846;7.958;2023-08-21T21:23:36;8.80;;;4.20;;
78508;SDS011;67802;50.846;7.958;2023-08-21T21:26:01;7.60;;;4.43;;
78508;SDS011;67802;50.846;7.958;2023-08-21T21:28:28;8.25;;;4.20;;
78508;SDS011;67802;50.846;7.958;2023-08-21T21:30:56;7.82;;;4.38;;
78508;SDS011;67802;50.846;7.958;2023-08-21T21:33:22;7.93;;;4.18;;
78508;SDS011;67802;50.846;7.958;2023-08-21T21:35:47;6.60;;;3.67;;
78508;SDS011;67802;50.846;7.958;2023-08-21T21:38:13;11.13;;;3.83;;
78508;SDS011;67802;50.846;7.958;2023-08-21T21:40:41;8.45;;;3.95;;
78508;SDS011;67802;50.846;7.958;2023-08-21T21:43:07;7.32;;;4.22;;
78508;SDS011;67802;50.846;7.958;2023-08-21T21:45:33;8.68;;;4.00;;
78508;SDS011;67802;50.846;7.958;2023-08-21T21:47:59;10.45;;;4.10;;
78508;SDS011;67802;50.846;7.958;2023-08-21T21:50:25;8.98;;;3.67;;
78508;SDS011;67802;50.846;7.958;2023-08-21T21:52:50;7.90;;;3.65;;
78508;SDS011;67802;50.846;7.958;2023-08-21T21:55:16;8.55;;;3.92;;
78508;SDS011;67802;50.846;7.958;2023-08-21T21:57:41;9.65;;;4.07;;
78508;SDS011;67802;50.846;7.958;2023-08-21T22:00:07;11.15;;;3.88;;
78508;SDS011;67802;50.846;7.958;2023-08-21T22:02:33;9.02;;;3.80;;
78508;SDS011;67802;50.846;7.958;2023-08-21T22:04:59;7.63;;;3.65;;
78508;SDS011;67802;50.846;7.958;2023-08-21T22:07:25;9.90;;;3.90;;
78508;SDS011;67802;50.846;7.958;2023-08-21T22:09:50;9.43;;;4.00;;
78508;SDS011;67802;50.846;7.958;2023-08-21T22:12:15;8.32;;;4.68;;
78508;SDS011;67802;50.846;7.958;2023-08-21T22:14:41;7.32;;;3.70;;
78508;SDS011;67802;50.846;7.958;2023-08-21T22:17:06;7.10;;;3.70;;
78508;SDS011;67802;50.846;7.958;2023-08-21T22:19:32;9.70;;;3.90;;
78508;SDS011;67802;50.846;7.958;2023-08-21T22:21:57;7.50;;;4.13;;
78508;SDS011;67802;50.846;7.958;2023-08-21T22:24:22;10.05;;;3.67;;
78508;SDS011;67802;50.846;7.958;2023-08-21T22:26:48;7.00;;;3.80;;
78508;SDS011;67802;50.846;7.958;2023-08-21T22:29:13;7.70;;;3.47;;
78508;SDS011;67802;50.846;7.958;2023-08-21T22:31:38;11.25;;;3.60;;
78508;SDS011;67802;50.846;7.958;2023-08-21T22:34:04;8.80;;;3.80;;
78508;SDS011;67802;50.846;7.958;2023-08-21T22:36:29;7.70;;;3.90;;
78508;SDS011;67802;50.846;7.958;2023-08-21T22:38:54;7.05;;;3.72;;
78508;SDS011;67802;50.846;7.958;2023-08-21T22:41:19;9.50;;;3.90;;
78508;SDS011;67802;50.846;7.958;2023-08-21T22:43:45;6.82;;;3.28;;
78508;SDS011;67802;50.846;7.958;2023-08-21T22:46:10;7.53;;;3.90;;
78508;SDS011;67802;50.846;7.958;2023-08-21T22:48:35;8.38;;;4.13;;
78508;SDS011;67802;50.846;7.958;2023-08-21T22:51:02;7.47;;;3.70;;
78508;SDS011;67802;50.846;7.958;2023-08-21T22:53:29;8.18;;;3.58;;
78508;SDS011;67802;50.846;7.958;2023-08-21T22:55:55;10.95;;;3.75;;
78508;SDS011;67802;50.846;7.958;2023-08-21T22:58:20;6.38;;;3.72;;
78508;SDS011;67802;50.846;7.958;2023-08-21T23:00:46;7.90;;;3.60;;
78508;SDS011;67802;50.846;7.958;2023-08-21T23:03:11;6.97;;;3.40;;
78508;SDS011;67802;50.846;7.958;2023-08-21T23:05:36;6.88;;;3.15;;
78508;SDS011;67802;50.846;7.958;2023-08-21T23:08:01;6.05;;;3.33;;
78508;SDS011;67802;50.846;7.958;2023-08-21T23:10:27;7.85;;;3.85;;
78508;SDS011;67802;50.846;7.958;2023-08-21T23:12:52;6.15;;;3.22;;
78508;SDS011;67802;50.846;7.958;2023-08-21T23:15:18;7.55;;;3.25;;
78508;SDS011;67802;50.846;7.958;2023-08-21T23:17:43;7.30;;;3.35;;
78508;SDS011;67802;50.846;7.958;2023-08-21T23:20:08;8.32;;;3.40;;
78508;SDS011;67802;50.846;7.958;2023-08-21T23:22:35;7.35;;;3.03;;
78508;SDS011;67802;50.846;7.958;2023-08-21T23:25:00;8.98;;;3.28;;
78508;SDS011;67802;50.846;7.958;2023-08-21T23:27:25;6.68;;;3.50;;
78508;SDS011;67802;50.846;7.958;2023-08-21T23:29:51;10.95;;;3.55;;
78508;SDS011;67802;50.846;7.958;2023-08-21T23:32:16;9.90;;;3.53;;
78508;SDS011;67802;50.846;7.958;2023-08-21T23:34:41;7.18;;;3.22;;
78508;SDS011;67802;50.846;7.958;2023-08-21T23:37:07;11.00;;;3.92;;
78508;SDS011;67802;50.846;7.958;2023-08-21T23:39:32;6.67;;;3.30;;
78508;SDS011;67802;50.846;7.958;2023-08-21T23:41:57;6.55;;;3.40;;
78508;SDS011;67802;50.846;7.958;2023-08-21T23:44:23;8.52;;;3.47;;
78508;SDS011;67802;50.846;7.958;2023-08-21T23:46:49;7.65;;;3.20;;
78508;SDS011;67802;50.846;7.958;2023-08-21T23:49:14;7.63;;;3.37;;
78508;SDS011;67802;50.846;7.958;2023-08-21T23:51:39;8.00;;;3.40;;
78508;SDS011;67802;50.846;7.958;2023-08-21T23:54:05;6.77;;;3.17;;
78508;SDS011;67802;50.846;7.958;2023-08-21T23:56:30;6.93;;;3.22;;
78508;SDS011;67802;50.846;7.958;2023-08-21T23:58:56;7.57;;;3.28;;
